Time;durP1;ratioP1;P1;durP2;ratioP2;P2;SDS_P1;SDS_P2;PMS_P1;PMS_P2;Temp;Humidity;BMP_temperature;BMP_pressure;BME280_temperature;BME280_humidity;BME280_pressure;Samples;Min_cycle;Max_cycle;Signal;HPM_P1;HPM_P2
2022/12/19 00:02:24;;;;;;;33.50;15.50;;;;;;;-2.03;100.00;99122.13;5112341;28;20231;-77
2022/12/19 00:04:51;;;;;;;32.13;15.10;;;;;;;-2.05;100.00;99131.66;5110667;28;20234;-77
2022/12/19 00:07:17;;;;;;;31.90;16.60;;;;;;;-2.01;100.00;99132.50;5111532;28;20216;-77
2022/12/19 00:09:43;;;;;;;33.40;17.27;;;;;;;-1.99;100.00;99141.09;5111817;28;20212;-77
2022/12/19 00:12:10;;;;;;;35.20;17.27;;;;;;;-2.02;100.00;99133.38;5112036;28;20251;-77
2022/12/19 00:14:37;;;;;;;31.27;15.93;;;;;;;-2.03;100.00;99129.06;5112402;28;20204;-77
2022/12/19 00:17:03;;;;;;;30.43;16.47;;;;;;;-2.01;100.00;99135.09;5112289;28;20203;-77
2022/12/19 00:19:31;;;;;;;31.10;15.50;;;;;;;-2.01;100.00;99129.91;5111900;28;20231;-77
2022/12/19 00:21:57;;;;;;;31.57;15.77;;;;;;;-2.00;100.00;99129.91;5111798;28;20236;-77
2022/12/19 00:24:24;;;;;;;32.03;17.40;;;;;;;-1.94;100.00;99123.81;5111976;28;20717;-77
2022/12/19 00:26:50;;;;;;;35.77;17.03;;;;;;;-1.95;100.00;99127.28;5111902;28;20236;-77
2022/12/19 00:29:17;;;;;;;30.57;16.30;;;;;;;-1.92;100.00;99129.84;5111514;28;20220;-77
2022/12/19 00:31:44;;;;;;;32.37;16.63;;;;;;;-1.87;100.00;99130.69;5111832;28;20233;-77
2022/12/19 00:34:10;;;;;;;34.70;16.93;;;;;;;-1.88;100.00;99135.03;5111858;28;20697;-77
2022/12/19 00:36:38;;;;;;;34.07;16.93;;;;;;;-1.76;100.00;99134.09;5111868;28;20212;-77
2022/12/19 00:39:06;;;;;;;32.20;15.93;;;;;;;-1.75;100.00;99128.94;5111556;28;20209;-78
2022/12/19 00:41:35;;;;;;;34.17;17.10;;;;;;;-1.55;100.00;99108.06;5111441;28;20233;-78
2022/12/19 00:44:03;;;;;;;33.07;16.53;;;;;;;-1.46;100.00;99082.97;5111698;28;20209;-78
2022/12/19 00:46:31;;;;;;;36.47;18.03;;;;;;;-1.45;100.00;99063.06;5111387;28;20675;-78
2022/12/19 00:48:58;;;;;;;35.83;17.10;;;;;;;-1.47;100.00;99055.31;5111458;28;20291;-78
2022/12/19 00:51:27;;;;;;;32.10;16.43;;;;;;;-1.47;100.00;99046.69;5111456;28;20722;-78
2022/12/19 00:53:56;;;;;;;31.37;17.33;;;;;;;-1.54;100.00;99068.34;5111614;28;20213;-78
2022/12/19 00:56:26;;;;;;;30.57;15.87;;;;;;;-1.65;100.00;99088.28;5111520;28;20223;-78
2022/12/19 00:58:53;;;;;;;35.27;17.47;;;;;;;-1.73;100.00;99088.31;5111269;28;20673;-77
2022/12/19 01:01:21;;;;;;;34.10;16.80;;;;;;;-1.75;100.00;99084.88;5111396;28;20263;-78
2022/12/19 01:03:48;;;;;;;34.27;16.43;;;;;;;-1.62;100.00;99076.16;5111638;28;20493;-78
2022/12/19 01:06:15;;;;;;;33.33;16.20;;;;;;;-1.57;100.00;99082.19;5111510;28;20211;-77
2022/12/19 01:08:42;;;;;;;29.40;16.20;;;;;;;-1.54;100.00;99073.53;5111340;28;20589;-77
2022/12/19 01:11:10;;;;;;;32.17;16.23;;;;;;;-1.52;100.00;99069.19;5111374;28;20588;-78
2022/12/19 01:13:37;;;;;;;30.80;16.40;;;;;;;-1.53;100.00;99075.25;5111531;28;20225;-78
2022/12/19 01:16:06;;;;;;;33.40;16.57;;;;;;;-1.48;100.00;99069.13;5111620;28;20281;-77
2022/12/19 01:18:34;;;;;;;34.27;17.33;;;;;;;-1.42;100.00;99065.66;5111377;28;20685;-78
2022/12/19 01:21:02;;;;;;;33.07;17.20;;;;;;;-1.26;100.00;99039.59;5110795;28;20252;-78
2022/12/19 01:23:29;;;;;;;30.03;16.10;;;;;;;-1.25;100.00;99048.22;5111465;28;20209;-77
2022/12/19 01:25:56;;;;;;;30.00;15.63;;;;;;;-1.20;100.00;99029.16;5111569;28;20234;-77
2022/12/19 01:28:24;;;;;;;34.73;16.33;;;;;;;-1.29;100.00;99044.78;5111227;28;20677;-77
2022/12/19 01:30:51;;;;;;;30.50;16.53;;;;;;;-1.22;100.00;99043.03;5110798;28;20228;-77
2022/12/19 01:33:19;;;;;;;32.43;16.33;;;;;;;-1.27;100.00;99045.66;5111264;28;20209;-77
2022/12/19 01:35:47;;;;;;;31.47;15.20;;;;;;;-1.33;100.00;99052.59;5111200;28;20257;-77
2022/12/19 01:38:14;;;;;;;30.70;15.67;;;;;;;-1.31;100.00;99050.84;5111168;28;20215;-77
2022/12/19 01:40:41;;;;;;;31.07;16.43;;;;;;;-1.29;100.00;99043.94;5110900;28;20233;-77
2022/12/19 01:43:13;;;;;;;31.87;16.60;;;;;;;-1.23;100.00;99038.72;5111176;28;20210;-77
2022/12/19 01:45:41;;;;;;;35.27;17.17;;;;;;;-1.12;100.00;99034.31;5111155;28;20254;-77
2022/12/19 01:48:17;;;;;;;29.03;16.00;;;;;;;-1.10;100.00;99029.94;5110969;28;20212;-77
2022/12/19 01:50:51;;;;;;;33.30;16.50;;;;;;;-1.11;100.00;99020.44;5111076;28;20234;-78
2022/12/19 01:53:19;;;;;;;32.63;16.53;;;;;;;-1.13;100.00;99024.78;5111051;28;20204;-77
2022/12/19 01:55:45;;;;;;;30.27;15.33;;;;;;;-1.16;100.00;99032.59;5110998;28;20209;-77
2022/12/19 01:58:13;;;;;;;33.30;17.10;;;;;;;-1.07;100.00;99020.41;5113224;28;20208;-77
2022/12/19 02:00:43;;;;;;;33.43;15.93;;;;;;;-1.07;100.00;99014.34;5114134;28;20248;-78
2022/12/19 02:03:14;;;;;;;33.43;16.90;;;;;;;-1.09;100.00;99016.09;5114545;28;20208;-77
2022/12/19 02:05:41;;;;;;;33.67;16.67;;;;;;;-1.04;100.00;99020.34;5114547;28;20326;-78
2022/12/19 02:08:07;;;;;;;35.70;17.23;;;;;;;-1.06;100.00;99005.72;5114737;28;20211;-78
2022/12/19 02:10:34;;;;;;;35.70;17.10;;;;;;;-1.06;100.00;99013.50;5114088;28;20225;-77
2022/12/19 02:13:00;;;;;;;34.27;16.20;;;;;;;-1.14;100.00;99007.50;5114462;28;20231;-78
2022/12/19 02:15:32;;;;;;;29.63;15.77;;;;;;;-1.13;100.00;99014.41;5114374;28;20212;-78
2022/12/19 02:18:10;;;;;;;37.37;17.93;;;;;;;-1.08;100.00;98997.94;5114520;28;20220;-78
2022/12/19 02:21:07;;;;;;;32.27;16.60;;;;;;;-0.93;100.00;98999.53;5113765;28;20241;-77
2022/12/19 02:24:09;;;;;;;28.80;15.43;;;;;;;-0.94;100.00;99000.38;5114333;28;20208;-77
2022/12/19 02:26:58;;;;;;;31.57;16.77;;;;;;;-0.93;100.00;99008.16;5114372;28;20209;-77
2022/12/19 02:30:01;;;;;;;31.67;16.37;;;;;;;-0.91;100.00;99015.91;5113926;28;20224;-77
2022/12/19 02:32:33;;;;;;;33.13;15.60;;;;;;;-0.94;100.00;99021.13;5114267;28;20200;-77
2022/12/19 02:35:07;;;;;;;34.30;15.67;;;;;;;-0.88;100.00;99005.50;5114227;28;20624;-77
2022/12/19 02:37:37;;;;;;;31.60;15.63;;;;;;;-0.89;100.00;98998.59;5114003;28;20209;-77
2022/12/19 02:40:09;;;;;;;32.40;16.83;;;;;;;-0.79;100.00;99002.81;5113597;28;20212;-77
2022/12/19 02:42:39;;;;;;;35.93;17.87;;;;;;;-0.65;100.00;98988.81;5113661;28;20225;-77
2022/12/19 02:45:09;;;;;;;35.47;17.60;;;;;;;-0.72;100.00;99004.47;5113756;28;20668;-77
2022/12/19 02:47:38;;;;;;;36.83;19.63;;;;;;;-0.71;100.00;98988.88;5113955;28;20220;-77
2022/12/19 02:50:07;;;;;;;37.20;19.70;;;;;;;-0.57;100.00;98993.94;5113450;28;20216;-77
2022/12/19 02:52:48;;;;;;;37.20;19.80;;;;;;;-0.65;100.00;99003.53;5113619;28;20216;-77
2022/12/19 02:55:19;;;;;;;34.53;18.27;;;;;;;-0.67;100.00;99005.28;5113801;28;20607;-77
2022/12/19 02:58:07;;;;;;;36.90;19.27;;;;;;;-0.63;100.00;99009.56;5113735;28;20234;-77
2022/12/19 03:00:43;;;;;;;36.87;20.33;;;;;;;-0.47;100.00;98999.00;5113323;28;20232;-77
2022/12/19 03:03:20;;;;;;;37.60;20.17;;;;;;;-0.54;100.00;98996.47;5113973;28;20247;-77
2022/12/19 03:05:55;;;;;;;37.57;18.80;;;;;;;-0.53;100.00;99013.75;5113417;28;20672;-77
2022/12/19 03:08:27;;;;;;;37.20;18.93;;;;;;;-0.54;100.00;99010.31;5113294;28;20215;-77
2022/12/19 03:10:58;;;;;;;41.57;21.10;;;;;;;-0.48;100.00;99001.59;5113142;28;20228;-77
2022/12/19 03:13:30;;;;;;;39.17;19.90;;;;;;;-0.48;100.00;99006.78;5113162;28;20217;-77
2022/12/19 03:15:57;;;;;;;35.90;19.70;;;;;;;-0.44;100.00;99018.88;5113309;28;20210;-77
2022/12/19 03:18:26;;;;;;;40.13;20.37;;;;;;;-0.45;100.00;99018.00;5113241;28;20210;-77
2022/12/19 03:20:59;;;;;;;39.73;20.60;;;;;;;-0.34;100.00;99025.66;5112702;28;20250;-77
2022/12/19 03:23:27;;;;;;;38.43;19.67;;;;;;;-0.28;100.00;99017.78;5113171;28;20214;-77
2022/12/19 03:25:57;;;;;;;42.03;21.70;;;;;;;-0.14;100.00;99010.69;5112966;28;20228;-76
2022/12/19 03:28:30;;;;;;;41.57;21.90;;;;;;;-0.17;100.00;99030.63;5113168;28;20209;-76
2022/12/19 03:30:59;;;;;;;33.20;18.90;;;;;;;-0.23;100.00;99029.84;5112699;28;20604;-77
2022/12/19 03:33:29;;;;;;;38.77;20.57;;;;;;;-0.17;100.00;99039.28;5112981;28;20593;-77
2022/12/19 03:35:57;;;;;;;37.20;20.27;;;;;;;-0.24;100.00;99038.53;5112913;28;20319;-76
2022/12/19 03:38:26;;;;;;;36.27;19.60;;;;;;;-0.20;100.00;99047.16;5112725;28;20222;-76
2022/12/19 03:40:54;;;;;;;38.67;19.90;;;;;;;-0.22;100.00;99037.59;5112186;28;20566;-77
2022/12/19 03:43:22;;;;;;;39.37;19.87;;;;;;;-0.23;100.00;99036.78;5112813;28;20205;-76
2022/12/19 03:45:55;;;;;;;35.93;20.43;;;;;;;-0.17;100.00;99020.22;5112572;28;20212;-76
2022/12/19 03:48:27;;;;;;;33.97;19.47;;;;;;;-0.17;100.00;99020.22;5112622;28;20217;-77
2022/12/19 03:51:07;;;;;;;33.47;18.83;;;;;;;-0.17;100.00;99015.91;5112097;28;20225;-77
2022/12/19 03:53:48;;;;;;;38.07;18.50;;;;;;;-0.19;100.00;99015.09;5112760;28;20202;-77
2022/12/19 03:56:21;;;;;;;37.17;19.40;;;;;;;-0.19;100.00;99023.72;5112394;28;20220;-77
2022/12/19 03:58:56;;;;;;;39.50;20.87;;;;;;;-0.08;100.00;99006.25;5112119;28;20209;-76
2022/12/19 04:01:23;;;;;;;36.17;20.33;;;;;;;-0.07;100.00;99003.66;5112225;28;20256;-76
2022/12/19 04:03:50;;;;;;;35.57;19.00;;;;;;;-0.04;100.00;99010.53;5112234;28;20214;-76
2022/12/19 04:06:18;;;;;;;35.40;20.50;;;;;;;0.03;100.00;99005.25;5112408;28;20202;-76
2022/12/19 04:08:45;;;;;;;36.73;19.07;;;;;;;0.00;100.00;99018.28;5112231;28;20231;-76
2022/12/19 04:11:18;;;;;;;37.10;20.07;;;;;;;-0.01;100.00;99026.94;5112059;28;20588;-76
2022/12/19 04:13:49;;;;;;;36.70;19.07;;;;;;;0.00;100.00;99022.63;5112191;28;20220;-76
2022/12/19 04:16:23;;;;;;;31.57;18.37;;;;;;;0.00;100.00;99033.03;5112174;28;20222;-76
2022/12/19 04:18:58;;;;;;;38.03;20.37;;;;;;;-0.02;100.00;99030.44;5112248;28;20211;-77
2022/12/19 04:21:31;;;;;;;36.50;19.40;;;;;;;0.02;100.00;99021.69;5111396;28;20233;-76
2022/12/19 04:24:04;;;;;;;33.30;17.03;;;;;;;0.01;100.00;99025.19;5112003;28;20206;-76
2022/12/19 04:26:32;;;;;;;35.40;18.77;;;;;;;0.03;100.00;99028.66;5111925;28;20227;-77
2022/12/19 04:29:02;;;;;;;32.20;17.60;;;;;;;0.06;100.00;99035.50;5111874;28;20209;-76
2022/12/19 04:31:29;;;;;;;34.43;19.67;;;;;;;0.10;100.00;99043.25;5111979;28;20315;-77
2022/12/19 04:33:55;;;;;;;32.83;19.20;;;;;;;0.10;100.00;99040.66;5111987;28;20216;-76
2022/12/19 04:36:22;;;;;;;37.13;19.17;;;;;;;0.17;100.00;99041.41;5111900;28;20212;-77
2022/12/19 04:38:50;;;;;;;38.37;18.93;;;;;;;0.17;100.00;99037.09;5111501;28;20220;-77
2022/12/19 04:41:16;;;;;;;36.77;19.37;;;;;;;0.21;100.00;99038.78;5111759;28;20237;-77
2022/12/19 04:43:43;;;;;;;38.90;19.37;;;;;;;0.21;100.00;99041.38;5111964;28;20217;-76
2022/12/19 04:46:09;;;;;;;35.73;18.00;;;;;;;0.21;100.00;99033.59;5111614;28;20688;-76
2022/12/19 04:48:36;;;;;;;36.17;18.43;;;;;;;0.23;100.00;99029.22;5111729;28;20614;-76
2022/12/19 04:51:03;;;;;;;34.87;18.90;;;;;;;0.36;100.00;99028.16;5111337;28;20222;-79
2022/12/19 04:53:29;;;;;;;34.07;18.70;;;;;;;0.42;100.00;99033.25;5111538;28;20228;-77
2022/12/19 04:56:01;;;;;;;34.90;18.53;;;;;;;0.44;100.00;99041.88;5111667;28;20206;-76
2022/12/19 04:58:28;;;;;;;35.20;18.07;;;;;;;0.37;100.00;99029.03;5111711;28;20206;-76
2022/12/19 05:00:54;;;;;;;35.80;19.23;;;;;;;0.39;100.00;99028.09;5111383;28;20233;-76
2022/12/19 05:03:21;;;;;;;35.23;17.47;;;;;;;0.36;100.00;99038.56;5111310;28;20712;-76
2022/12/19 05:05:48;;;;;;;32.73;18.23;;;;;;;0.32;100.00;99036.88;5111505;28;20206;-77
2022/12/19 05:08:14;;;;;;;35.70;18.07;;;;;;;0.35;100.00;99036.84;5111447;28;20205;-76
2022/12/19 05:10:41;;;;;;;34.73;17.97;;;;;;;0.34;100.00;99035.13;5111434;28;20279;-77
2022/12/19 05:13:09;;;;;;;32.87;17.23;;;;;;;0.36;100.00;99033.34;5111534;28;20206;-76
2022/12/19 05:15:35;;;;;;;39.50;18.90;;;;;;;0.37;100.00;99024.66;5111616;28;20209;-77
2022/12/19 05:18:01;;;;;;;34.63;18.57;;;;;;;0.40;100.00;99014.22;5111345;28;20202;-77
2022/12/19 05:23:02;;;;;;;30.87;17.77;;;;;;;0.41;100.00;99018.53;5128781;28;20235;-81
2022/12/19 05:25:29;;;;;;;37.80;18.70;;;;;;;0.47;100.00;99013.25;5131669;28;20295;-81
2022/12/19 05:27:55;;;;;;;31.07;16.43;;;;;;;0.46;100.00;99010.66;5131797;28;20235;-81
2022/12/19 05:30:23;;;;;;;35.87;18.13;;;;;;;0.47;100.00;99014.97;5131455;28;20219;-81
2022/12/19 05:32:50;;;;;;;33.17;16.33;;;;;;;0.46;100.00;99008.06;5112581;28;20724;-81
2022/12/19 05:35:16;;;;;;;33.10;18.60;;;;;;;0.48;100.00;99012.38;5114987;28;20228;-81
2022/12/19 05:37:43;;;;;;;34.63;16.87;;;;;;;0.53;100.00;99017.50;5115117;28;20279;-81
2022/12/19 05:40:10;;;;;;;35.10;17.10;;;;;;;0.54;100.00;99014.88;5114768;28;20202;-81
2022/12/19 05:42:36;;;;;;;37.23;17.70;;;;;;;0.53;100.00;99023.56;5115186;28;20605;-82
2022/12/19 05:45:03;;;;;;;32.87;17.30;;;;;;;0.56;100.00;99023.50;5115580;28;20236;-82
2022/12/19 05:47:31;;;;;;;33.50;17.07;;;;;;;0.54;100.00;99022.66;5115380;28;20585;-82
2022/12/19 05:49:58;;;;;;;34.83;17.60;;;;;;;0.58;100.00;99008.75;5114524;28;20221;-82
2022/12/19 05:52:24;;;;;;;33.73;17.23;;;;;;;0.61;100.00;99011.28;5114669;28;20233;-81
2022/12/19 05:54:51;;;;;;;36.47;17.20;;;;;;;0.62;100.00;99013.00;5114814;28;20231;-81
2022/12/19 05:57:17;;;;;;;36.30;18.83;;;;;;;0.58;100.00;99013.94;5114723;28;20206;-82
2022/12/19 05:59:44;;;;;;;37.03;17.67;;;;;;;0.63;100.00;99014.72;5114314;28;20304;-81
2022/12/19 06:02:10;;;;;;;35.40;17.87;;;;;;;0.65;100.00;99005.16;5114204;28;20230;-81
2022/12/19 06:04:38;;;;;;;34.17;17.90;;;;;;;0.70;100.00;98998.16;5114673;28;20217;-82
2022/12/19 06:07:05;;;;;;;31.00;17.63;;;;;;;0.66;100.00;99006.88;5114335;28;20686;-81
2022/12/19 06:09:31;;;;;;;28.53;16.37;;;;;;;0.65;100.00;99002.56;5114369;28;20247;-82
2022/12/19 06:11:58;;;;;;;37.37;18.30;;;;;;;0.67;100.00;98992.97;5114646;28;20232;-81
2022/12/19 06:14:24;;;;;;;34.03;18.17;;;;;;;0.65;100.00;98989.56;5114383;28;20216;-81
2022/12/19 06:16:51;;;;;;;37.10;17.73;;;;;;;0.67;100.00;98982.56;5114358;28;20696;-81
2022/12/19 06:19:20;;;;;;;32.10;17.13;;;;;;;0.68;100.00;98980.84;5114136;28;20673;-81
2022/12/19 06:21:48;;;;;;;34.77;17.00;;;;;;;0.70;100.00;98986.88;5114273;28;20252;-81
2022/12/19 06:24:15;;;;;;;36.73;18.40;;;;;;;0.69;100.00;98986.00;5114392;28;20209;-81
2022/12/19 06:26:41;;;;;;;37.83;18.30;;;;;;;0.74;100.00;98984.19;5114268;28;20206;-80
2022/12/19 06:29:08;;;;;;;37.87;17.87;;;;;;;0.71;100.00;98986.84;5113831;28;20219;-83
2022/12/19 06:31:34;;;;;;;34.50;17.27;;;;;;;0.72;100.00;98991.16;5113885;28;20226;-82
2022/12/19 06:34:01;;;;;;;35.90;18.37;;;;;;;0.74;100.00;98994.59;5114400;28;20221;-81
2022/12/19 06:36:30;;;;;;;33.80;17.73;;;;;;;0.76;100.00;98987.63;5114259;28;20229;-81
2022/12/19 06:38:58;;;;;;;31.47;16.90;;;;;;;0.75;100.00;98995.47;5113602;28;20206;-81
2022/12/19 06:44:13;;;;;;;33.43;17.90;;;;;;;0.72;100.00;98988.56;5113528;28;20200;-81
2022/12/19 06:46:39;;;;;;;32.20;16.23;;;;;;;0.74;100.00;98984.19;5114043;28;20217;-81
2022/12/19 06:49:06;;;;;;;35.10;18.83;;;;;;;0.72;100.00;98979.88;5113588;28;20585;-81
2022/12/19 06:51:33;;;;;;;34.33;18.03;;;;;;;0.77;100.00;98984.16;5113578;28;20229;-81
2022/12/19 06:54:01;;;;;;;40.70;18.37;;;;;;;0.78;100.00;98984.97;5113843;28;20198;-81
2022/12/19 06:56:28;;;;;;;35.30;18.37;;;;;;;0.77;100.00;98984.16;5113476;28;20210;-81
2022/12/19 06:58:55;;;;;;;35.20;18.47;;;;;;;0.75;100.00;98985.06;5113339;28;20206;-81
2022/12/19 07:01:30;;;;;;;33.70;16.90;;;;;;;0.73;100.00;98987.66;5113568;28;20233;-81
2022/12/19 07:03:57;;;;;;;38.70;18.90;;;;;;;0.76;100.00;98987.63;5113467;28;20237;-80
2022/12/19 07:06:23;;;;;;;37.70;18.23;;;;;;;0.80;100.00;98988.44;5113391;28;20210;-81
2022/12/19 07:08:50;;;;;;;36.67;19.33;;;;;;;0.80;100.00;98989.28;5112971;28;20216;-80
2022/12/19 07:11:18;;;;;;;34.50;17.23;;;;;;;0.80;100.00;98984.06;5113206;28;20245;-80
2022/12/19 07:13:44;;;;;;;39.17;19.03;;;;;;;0.85;100.00;98987.47;5113504;28;20213;-81
2022/12/19 07:16:11;;;;;;;37.53;18.93;;;;;;;0.86;100.00;98985.72;5113309;28;20210;-81
2022/12/19 07:18:39;;;;;;;37.70;18.63;;;;;;;0.87;100.00;98984.84;5113249;28;20229;-81
2022/12/19 07:21:09;;;;;;;33.77;17.00;;;;;;;0.87;100.00;98984.84;5112603;28;20249;-81
2022/12/19 07:23:36;;;;;;;37.80;18.87;;;;;;;0.91;100.00;98982.16;5112892;28;20295;-81
2022/12/19 07:26:03;;;;;;;34.67;18.10;;;;;;;0.97;100.00;98982.03;5113322;28;20205;-81
2022/12/19 07:28:33;;;;;;;35.80;17.50;;;;;;;0.96;100.00;98969.94;5113183;28;20202;-81
2022/12/19 07:30:59;;;;;;;37.40;18.67;;;;;;;0.93;100.00;98969.97;5112600;28;20226;-80
2022/12/19 07:33:26;;;;;;;35.10;17.40;;;;;;;0.93;100.00;98980.38;5112946;28;20202;-81
2022/12/19 07:35:52;;;;;;;36.17;18.83;;;;;;;0.95;100.00;98973.41;5112896;28;20217;-81
2022/12/19 07:38:19;;;;;;;32.90;16.53;;;;;;;0.97;100.00;98986.38;5112675;28;20218;-81
2022/12/19 07:40:45;;;;;;;33.93;18.90;;;;;;;0.99;100.00;98990.69;5112249;28;20205;-80
2022/12/19 07:43:12;;;;;;;33.20;16.80;;;;;;;1.02;100.00;98998.44;5112756;28;20237;-80
2022/12/19 07:45:40;;;;;;;36.67;17.80;;;;;;;1.06;100.00;98996.63;5112648;28;20210;-80
2022/12/19 07:48:07;;;;;;;33.23;16.63;;;;;;;1.08;100.00;98995.72;5112702;28;20648;-80
2022/12/19 07:50:34;;;;;;;28.00;16.60;;;;;;;1.09;100.00;98996.56;5111989;28;20212;-81
2022/12/19 07:53:01;;;;;;;32.47;17.37;;;;;;;1.17;100.00;98995.53;5112522;28;20555;-80
2022/12/19 07:55:28;;;;;;;31.17;16.30;;;;;;;1.16;100.00;98990.38;5110836;28;20202;-79
2022/12/19 07:57:55;;;;;;;33.03;18.17;;;;;;;1.19;100.00;98993.78;5112084;28;20213;-80
2022/12/19 08:00:22;;;;;;;34.60;18.13;;;;;;;1.18;100.00;98997.25;5112011;28;20210;-78
2022/12/19 08:02:49;;;;;;;34.80;18.77;;;;;;;1.25;100.00;98992.81;5112055;28;20336;-81
2022/12/19 08:05:16;;;;;;;32.23;16.97;;;;;;;1.30;100.00;98994.44;5112294;28;20210;-80
2022/12/19 08:07:43;;;;;;;33.00;16.07;;;;;;;1.33;100.00;99001.31;5112612;28;20206;-79
2022/12/19 08:10:11;;;;;;;33.33;17.70;;;;;;;1.30;100.00;99002.25;5111986;28;20312;-80
2022/12/19 08:12:37;;;;;;;35.13;17.50;;;;;;;1.32;100.00;99000.50;5112158;28;20275;-79
2022/12/19 08:15:05;;;;;;;33.67;19.03;;;;;;;1.36;100.00;99002.13;5112314;28;20206;-81
2022/12/19 08:17:31;;;;;;;31.40;17.93;;;;;;;1.39;100.00;98996.88;5112043;28;20283;-81
2022/12/19 08:19:59;;;;;;;30.40;16.30;;;;;;;1.47;100.00;99005.38;5111652;28;20225;-81
2022/12/19 08:22:25;;;;;;;32.77;15.93;;;;;;;1.51;100.00;99007.06;5111811;28;20233;-80
2022/12/19 08:24:52;;;;;;;31.77;17.07;;;;;;;1.58;100.00;99018.19;5111948;28;20559;-81
2022/12/19 08:27:18;;;;;;;33.17;17.40;;;;;;;1.59;100.00;99014.72;5112053;28;20637;-82
2022/12/19 08:29:48;;;;;;;33.83;18.20;;;;;;;1.63;100.00;99017.22;5111799;28;20210;-81
2022/12/19 08:32:15;;;;;;;30.60;17.13;;;;;;;1.65;100.00;99015.44;5111634;28;20705;-81
2022/12/19 08:34:41;;;;;;;29.70;16.70;;;;;;;1.68;100.00;99004.97;5111969;28;20665;-81
2022/12/19 08:37:09;;;;;;;32.37;17.50;;;;;;;1.71;100.00;99015.31;5111982;28;20202;-81
2022/12/19 08:39:36;;;;;;;30.97;16.27;;;;;;;1.81;100.00;99006.44;5111463;28;20210;-80
2022/12/19 08:42:03;;;;;;;29.97;16.33;;;;;;;1.87;100.00;99002.84;5111640;28;20694;-80
2022/12/19 08:44:29;;;;;;;27.83;16.50;;;;;;;1.92;100.00;99008.81;5111643;28;20230;-79
2022/12/19 08:46:56;;;;;;;29.47;16.73;;;;;;;1.99;100.00;99008.66;5111638;28;20213;-80
2022/12/19 08:49:22;;;;;;;29.67;15.87;;;;;;;1.99;100.00;99000.84;5111498;28;20210;-80
2022/12/19 08:51:49;;;;;;;28.23;15.73;;;;;;;2.04;100.00;98996.38;5111737;28;20232;-83
2022/12/19 08:54:17;;;;;;;32.13;17.17;;;;;;;2.06;100.00;98984.16;5111030;28;20639;-81
2022/12/19 08:56:43;;;;;;;32.37;16.63;;;;;;;2.05;100.00;98974.63;5111549;28;20202;-80
2022/12/19 08:59:10;;;;;;;31.60;16.63;;;;;;;2.05;100.00;98979.84;5111062;28;20210;-80
2022/12/19 09:01:36;;;;;;;28.53;16.60;;;;;;;2.08;100.00;98987.59;5111332;28;20226;-80
2022/12/19 09:04:04;;;;;;;31.57;16.27;;;;;;;2.12;100.00;98976.22;5111621;28;20222;-80
2022/12/19 09:06:31;;;;;;;31.93;17.87;;;;;;;2.23;100.00;98973.34;5112221;28;20205;-80
2022/12/19 09:08:58;;;;;;;28.50;15.50;;;;;;;2.28;100.00;98964.50;5115569;28;20225;-80
2022/12/19 09:11:26;;;;;;;29.77;17.37;;;;;;;2.34;100.00;98966.97;5115750;28;20293;-81
2022/12/19 09:13:55;;;;;;;26.77;16.07;;;;;;;2.37;100.00;98972.13;5115714;28;20202;-81
2022/12/19 09:16:24;;;;;;;30.27;17.43;;;;;;;2.44;100.00;98973.72;5115712;28;20666;-81
2022/12/19 09:18:53;;;;;;;29.37;16.07;;;;;;;2.50;100.00;98952.69;5115441;28;20209;-80
2022/12/19 09:21:22;;;;;;;26.70;15.53;;;;;;;2.60;100.00;98956.78;5114157;28;20230;-82
2022/12/19 09:23:49;;;;;;;28.50;14.90;;;;;;;2.68;100.00;98951.38;5114343;28;20226;-82
2022/12/19 09:26:16;;;;;;;30.00;16.03;;;;;;;2.73;100.00;98967.78;5114776;28;20216;-81
2022/12/19 09:28:46;;;;;;;30.80;16.13;;;;;;;2.75;100.00;98969.44;5114463;28;20776;-81
2022/12/19 09:31:15;;;;;;;25.90;14.63;;;;;;;2.81;100.00;98966.69;5113189;28;20708;-81
2022/12/19 09:33:42;;;;;;;30.93;16.53;;;;;;;2.86;100.00;98964.81;5114005;28;20206;-81
2022/12/19 09:36:12;;;;;;;27.80;15.97;;;;;;;2.83;100.00;98956.22;5114723;28;20216;-81
2022/12/19 09:38:39;;;;;;;28.90;16.07;;;;;;;2.87;100.00;98948.25;5114533;28;20206;-80
2022/12/19 09:41:30;;;;;;;23.87;15.00;;;;;;;2.96;100.00;98947.16;5114205;28;20229;-80
2022/12/19 09:44:09;;;;;;;28.87;16.27;;;;;;;3.07;100.00;98945.97;5114684;28;20225;-81
2022/12/19 09:46:43;;;;;;;29.77;15.57;;;;;;;3.20;100.00;98949.13;5114616;28;20205;-81
2022/12/19 09:49:13;;;;;;;26.13;15.97;;;;;;;3.37;100.00;98934.69;5114331;28;20217;-81
2022/12/19 09:51:46;;;;;;;27.00;14.50;;;;;;;3.45;100.00;98930.13;5114144;28;20587;-81
2022/12/19 09:54:18;;;;;;;25.50;14.63;;;;;;;3.49;100.00;98926.50;5115544;28;20226;-82
2022/12/19 09:56:47;;;;;;;28.60;15.53;;;;;;;3.55;100.00;98921.09;5115471;28;20287;-82
2022/12/19 09:59:23;;;;;;;27.77;15.00;;;;;;;3.65;100.00;98914.72;5115399;28;20218;-81
2022/12/19 10:01:55;;;;;;;27.40;15.63;;;;;;;3.71;100.00;98916.28;5119207;28;20589;-84
2022/12/19 10:04:25;;;;;;;27.07;15.47;;;;;;;3.75;100.00;98910.94;5137046;28;20214;-83
2022/12/19 10:06:52;;;;;;;30.17;15.47;;;;;;;3.81;100.00;98902.91;5138361;28;20286;-82
2022/12/19 10:09:20;;;;;;;25.23;14.93;;;;;;;3.94;100.00;98906.00;5137513;28;20212;-82
2022/12/19 10:11:57;;;;;;;25.27;13.00;;;;;;;4.00;100.00;98906.69;5127367;28;20321;-83
2022/12/19 10:14:42;;;;;;;22.83;13.57;;;;;;;4.00;100.00;98901.44;5122298;28;20214;-82
2022/12/19 10:17:20;;;;;;;22.13;13.47;;;;;;;3.97;100.00;98895.47;5114984;28;20233;-82
2022/12/19 10:20:03;;;;;;;21.13;13.20;;;;;;;4.00;100.00;98891.00;5113694;28;20641;-84
2022/12/19 10:22:42;;;;;;;23.40;14.13;;;;;;;4.06;100.00;98885.56;5114430;28;20741;-82
2022/12/19 10:25:28;;;;;;;25.17;15.57;;;;;;;4.01;100.00;98882.22;5114838;28;20257;-82
2022/12/19 10:28:00;;;;;;;23.70;15.05;;;;;;;4.06;100.00;98885.56;5114324;28;20430;-86
2022/12/19 10:30:33;;;;;;;20.90;13.17;;;;;;;4.13;100.00;98894.91;5114268;28;20229;-86
2022/12/19 10:33:13;;;;;;;25.30;14.57;;;;;;;4.15;100.00;98895.72;5114494;28;20215;-82
2022/12/19 10:35:43;;;;;;;21.40;13.83;;;;;;;4.20;100.00;98888.59;5114536;28;20210;-82
2022/12/19 10:38:21;;;;;;;25.33;13.80;;;;;;;4.29;100.00;98876.97;5114608;28;20218;-80
2022/12/19 10:40:53;;;;;;;21.20;12.90;;;;;;;4.35;100.00;98866.31;5114199;28;20601;-80
2022/12/19 10:43:27;;;;;;;22.33;13.23;;;;;;;4.43;100.00;98865.16;5114329;28;20226;-79
2022/12/19 10:46:01;;;;;;;23.47;13.33;;;;;;;4.46;100.00;98872.88;5111855;28;20216;-80
2022/12/19 10:48:29;;;;;;;26.30;14.63;;;;;;;4.49;100.00;98864.94;5113821;28;20211;-80
2022/12/19 10:50:55;;;;;;;23.70;14.67;;;;;;;4.42;100.00;98868.69;5113444;28;20315;-82
2022/12/19 10:53:27;;;;;;;23.20;14.95;;;;;;;4.45;100.00;98871.19;5111764;28;20549;-82
2022/12/19 10:55:55;;;;;;;23.43;12.83;;;;;;;4.39;100.00;98868.75;5112280;28;20207;-81
2022/12/19 10:58:24;;;;;;;23.57;13.77;;;;;;;4.45;100.00;98873.78;5113089;28;20297;-81
2022/12/19 11:01:03;;;;;;;21.57;13.93;;;;;;;4.50;100.00;98871.88;5112870;28;20233;-81
2022/12/19 11:03:31;;;;;;;20.40;12.27;;;;;;;4.56;100.00;98850.75;5111695;28;20366;-82
2022/12/19 11:05:58;;;;;;;22.27;14.75;;;;;;;4.69;100.00;98846.78;5112508;28;20415;-80
2022/12/19 11:08:26;;;;;;;25.53;15.13;;;;;;;4.68;100.00;98845.09;5113452;28;20214;-79
2022/12/19 11:10:55;;;;;;;19.83;13.30;;;;;;;4.69;100.00;98833.69;5113388;28;20293;-80
2022/12/19 11:13:24;;;;;;;23.30;13.70;;;;;;;4.61;100.00;98827.88;5113443;28;20200;-80
2022/12/19 11:15:53;;;;;;;22.33;13.40;;;;;;;4.57;100.00;98831.50;5113324;28;20213;-81
2022/12/19 11:18:22;;;;;;;25.10;14.97;;;;;;;4.57;100.00;98831.50;5113331;28;20678;-80
2022/12/19 11:21:01;;;;;;;23.50;14.13;;;;;;;4.58;100.00;98827.97;5112856;28;20243;-78
2022/12/19 11:23:29;;;;;;;22.77;14.00;;;;;;;4.57;100.00;98821.03;5113275;28;20231;-78
2022/12/19 11:25:58;;;;;;;23.40;13.70;;;;;;;4.62;100.00;98824.34;5113151;28;20231;-80
2022/12/19 11:28:29;;;;;;;24.37;14.90;;;;;;;4.57;100.00;98831.50;5113070;28;20209;-83
2022/12/19 11:31:00;;;;;;;23.57;14.27;;;;;;;4.58;100.00;98832.38;5111686;28;20237;-83